Time;durP1;ratioP1;P1;durP2;ratioP2;P2;SDS_P1;SDS_P2;PMS_P1;PMS_P2;Temp;Humidity;BMP_temperature;BMP_pressure;BME280_temperature;BME280_humidity;BME280_pressure;Samples;Min_cycle;Max_cycle;Signal;HPM_P1;HPM_P2
2022/09/15 00:01:29;;;;;;;12.77;8.07;;;16.30;99.90;;;;;;5072131;28;20707;-84
2022/09/15 00:03:54;;;;;;;18.00;8.93;;;16.30;99.90;;;;;;5079230;28;20106;-85
2022/09/15 00:06:20;;;;;;;17.75;9.68;;;16.30;99.90;;;;;;5072661;28;20029;-82
2022/09/15 00:08:46;;;;;;;18.42;10.77;;;16.20;99.90;;;;;;5069157;28;20260;-84
2022/09/15 00:11:21;;;;;;;14.48;10.15;;;16.20;99.90;;;;;;5070753;28;20082;-82
2022/09/15 00:13:47;;;;;;;20.33;9.98;;;16.20;99.90;;;;;;5066571;28;20036;-83
2022/09/15 00:16:13;;;;;;;13.85;9.55;;;16.10;99.90;;;;;;5074039;28;20047;-82
2022/09/15 00:18:39;;;;;;;16.60;9.90;;;16.20;99.90;;;;;;5069718;28;20121;-83
2022/09/15 00:21:07;;;;;;;15.10;9.80;;;16.20;99.90;;;;;;5076314;28;20028;-82
2022/09/15 00:23:33;;;;;;;18.52;12.38;;;16.20;99.90;;;;;;5071628;28;20036;-81
2022/09/15 00:25:59;;;;;;;20.77;10.73;;;16.10;99.90;;;;;;5076379;28;20410;-80
2022/09/15 00:28:24;;;;;;;18.30;10.25;;;16.10;99.90;;;;;;5066979;28;20028;-83
2022/09/15 00:30:52;;;;;;;19.05;10.63;;;16.10;99.90;;;;;;5075925;28;20089;-82
2022/09/15 00:33:19;;;;;;;22.35;11.93;;;16.10;99.90;;;;;;5068974;28;20024;-80
2022/09/15 00:35:47;;;;;;;21.73;11.93;;;16.00;99.90;;;;;;5075720;28;20028;-82
2022/09/15 00:38:14;;;;;;;17.92;11.15;;;16.00;99.90;;;;;;5070459;28;20048;-82
2022/09/15 00:40:55;;;;;;;21.00;10.90;;;16.00;99.90;;;;;;5076338;28;20509;-82
2022/09/15 00:43:42;;;;;;;24.98;10.95;;;16.00;99.90;;;;;;5072171;28;20025;-81
2022/09/15 00:46:08;;;;;;;17.65;11.32;;;16.00;99.90;;;;;;5071792;28;20435;-82
2022/09/15 00:48:34;;;;;;;22.77;12.48;;;15.90;99.90;;;;;;5079100;28;20115;-83
2022/09/15 00:51:03;;;;;;;21.75;10.98;;;15.90;99.90;;;;;;5081617;28;20032;-82
2022/09/15 00:53:30;;;;;;;22.15;11.68;;;15.90;99.90;;;;;;5080006;28;20089;-82
2022/09/15 00:55:56;;;;;;;21.40;13.05;;;15.90;99.90;;;;;;5080612;28;20179;-83
2022/09/15 00:58:36;;;;;;;19.48;11.70;;;15.90;99.90;;;;;;5068552;28;20480;-82
2022/09/15 01:01:04;;;;;;;20.88;11.90;;;15.90;99.90;;;;;;5085514;28;20040;-83
2022/09/15 01:03:32;;;;;;;19.63;12.55;;;15.90;99.90;;;;;;5081393;28;20059;-83
2022/09/15 01:06:20;;;;;;;18.35;10.95;;;15.90;99.90;;;;;;5083501;28;20024;-83
2022/09/15 01:08:53;;;;;;;16.77;9.43;;;15.90;99.90;;;;;;5063861;28;20037;-86
2022/09/15 01:11:19;;;;;;;16.83;10.13;;;15.90;99.90;;;;;;5085836;28;20081;-82
2022/09/15 01:13:44;;;;;;;23.65;10.10;;;15.90;99.90;;;;;;5075213;28;20052;-83
2022/09/15 01:16:31;;;;;;;23.33;11.13;;;15.90;99.90;;;;;;5076747;28;20481;-83
2022/09/15 01:19:28;;;;;;;20.00;10.88;;;15.90;99.90;;;;;;5077176;28;20032;-82
2022/09/15 01:22:10;;;;;;;23.05;11.40;;;15.90;99.90;;;;;;5075804;28;20354;-83
2022/09/15 01:24:51;;;;;;;18.07;10.50;;;15.90;99.90;;;;;;5073717;28;20020;-83
2022/09/15 01:27:31;;;;;;;18.85;10.27;;;15.90;99.90;;;;;;5078518;28;20294;-83
2022/09/15 01:30:09;;;;;;;18.05;10.52;;;15.90;99.90;;;;;;5074687;28;20057;-83
2022/09/15 01:33:02;;;;;;;18.63;11.60;;;15.90;99.90;;;;;;5084824;28;20106;-85
2022/09/15 01:35:47;;;;;;;;;;;15.90;99.90;;;;;;5085622;28;20035;-82
2022/09/15 01:38:31;;;;;;;20.42;11.43;;;15.90;99.90;;;;;;5091705;28;19915;-84
2022/09/15 01:41:06;;;;;;;29.10;12.35;;;15.90;99.90;;;;;;5096243;28;20129;-84
2022/09/15 01:43:38;;;;;;;24.02;11.80;;;15.80;99.90;;;;;;5088395;28;20074;-84
2022/09/15 01:46:04;;;;;;;21.52;12.48;;;15.80;99.90;;;;;;5087766;28;20047;-83
2022/09/15 01:48:32;;;;;;;27.50;11.88;;;15.80;99.90;;;;;;5090446;28;20028;-83
2022/09/15 01:51:02;;;;;;;24.40;13.57;;;15.80;99.90;;;;;;5086117;28;20029;-83
2022/09/15 01:53:28;;;;;;;27.05;12.18;;;15.80;99.90;;;;;;5080126;28;20028;-82
2022/09/15 01:55:59;;;;;;;25.42;12.73;;;15.80;99.90;;;;;;5076230;28;20473;-83
2022/09/15 01:58:25;;;;;;;22.40;12.30;;;15.80;99.90;;;;;;5074507;28;20030;-83
2022/09/15 02:01:08;;;;;;;18.95;11.25;;;15.80;99.90;;;;;;5071802;28;20040;-87
2022/09/15 02:03:43;;;;;;;21.40;12.45;;;15.80;99.90;;;;;;5074936;28;20020;-82
2022/09/15 02:06:32;;;;;;;18.80;11.27;;;15.90;99.90;;;;;;5083752;28;20042;-83
2022/09/15 02:09:05;;;;;;;23.63;10.68;;;15.90;99.90;;;;;;5090224;28;20442;-81
2022/09/15 02:11:34;;;;;;;17.30;10.38;;;15.90;99.90;;;;;;5091655;28;20100;-82
2022/09/15 02:14:10;;;;;;;18.65;11.05;;;15.90;99.90;;;;;;5079186;28;20028;-83
2022/09/15 02:16:37;;;;;;;17.80;11.13;;;15.90;99.90;;;;;;5068189;28;20028;-84
2022/09/15 02:19:30;;;;;;;23.83;10.88;;;15.90;99.90;;;;;;5070622;28;20024;-83
2022/09/15 02:22:05;;;;;;;27.67;11.47;;;15.90;99.90;;;;;;5074375;28;20032;-86
2022/09/15 02:24:39;;;;;;;19.15;11.35;;;15.90;99.90;;;;;;5072575;28;20099;-82
2022/09/15 02:27:10;;;;;;;20.77;11.60;;;15.90;99.90;;;;;;5070785;28;20028;-84
2022/09/15 02:29:38;;;;;;;21.08;13.68;;;15.90;99.90;;;;;;5076150;28;20043;-84
2022/09/15 02:32:07;;;;;;;17.38;10.93;;;15.90;99.90;;;;;;5079087;28;20028;-84
2022/09/15 02:34:36;;;;;;;19.35;11.02;;;15.90;99.90;;;;;;5071824;28;20468;-84
2022/09/15 02:37:03;;;;;;;20.48;12.27;;;15.90;99.90;;;;;;5069134;28;20516;-84
2022/09/15 02:39:38;;;;;;;21.15;10.55;;;15.90;99.90;;;;;;5074767;28;20009;-84
2022/09/15 02:42:03;;;;;;;20.65;12.00;;;15.90;99.90;;;;;;5078397;28;20169;-83
2022/09/15 02:44:30;;;;;;;21.58;11.32;;;15.90;99.90;;;;;;5073395;28;20107;-83
2022/09/15 02:46:57;;;;;;;21.85;10.65;;;15.90;99.90;;;;;;5069527;28;20453;-83
2022/09/15 02:49:22;;;;;;;22.05;12.73;;;15.90;99.90;;;;;;5067233;28;20028;-87
2022/09/15 02:51:48;;;;;;;18.98;11.60;;;15.80;99.90;;;;;;5071260;28;20156;-86
2022/09/15 02:54:14;;;;;;;21.83;11.52;;;15.90;99.90;;;;;;5065671;28;20482;-83
2022/09/15 02:56:39;;;;;;;19.27;11.10;;;15.90;99.90;;;;;;5072988;28;20159;-83
2022/09/15 02:59:06;;;;;;;20.48;11.20;;;15.90;99.90;;;;;;5082932;28;20357;-84
2022/09/15 03:01:33;;;;;;;18.95;11.20;;;15.90;99.90;;;;;;5074749;28;20062;-86
2022/09/15 03:04:00;;;;;;;20.20;10.98;;;15.90;99.90;;;;;;5074579;28;20626;-82
2022/09/15 03:06:33;;;;;;;15.10;9.25;;;15.90;99.90;;;;;;5069734;28;20059;-82
2022/09/15 03:08:59;;;;;;;25.40;11.43;;;15.90;99.90;;;;;;5071310;28;20017;-83
2022/09/15 03:11:26;;;;;;;18.42;10.35;;;15.90;99.90;;;;;;5071091;28;20021;-86
2022/09/15 03:13:57;;;;;;;18.70;9.85;;;15.90;99.90;;;;;;5070490;28;20024;-82
2022/09/15 03:16:23;;;;;;;21.55;10.63;;;15.90;99.90;;;;;;5069464;28;20405;-86
2022/09/15 03:18:49;;;;;;;18.60;10.13;;;15.90;99.90;;;;;;5072336;28;20020;-83
2022/09/15 03:21:16;;;;;;;21.83;10.70;;;15.90;99.90;;;;;;5072492;28;20041;-83
2022/09/15 03:23:43;;;;;;;16.13;9.85;;;15.80;99.90;;;;;;5071382;28;20468;-87
2022/09/15 03:26:09;;;;;;;17.40;10.20;;;15.80;99.90;;;;;;5071535;28;20020;-81
2022/09/15 03:28:37;;;;;;;17.23;10.70;;;15.80;99.90;;;;;;5070616;28;20059;-82
2022/09/15 03:31:02;;;;;;;15.73;10.48;;;15.80;99.90;;;;;;5061535;28;20032;-81
2022/09/15 03:33:28;;;;;;;15.90;9.52;;;15.80;99.90;;;;;;5069963;28;20020;-82
2022/09/15 03:35:55;;;;;;;15.80;10.20;;;15.80;99.90;;;;;;5077874;28;20019;-87
2022/09/15 03:38:21;;;;;;;18.75;10.68;;;15.80;99.90;;;;;;5070833;28;20028;-81
2022/09/15 03:41:19;;;;;;;16.95;9.95;;;15.80;99.90;;;;;;5069846;28;20027;-82
2022/09/15 03:43:44;;;;;;;20.25;10.77;;;15.70;99.90;;;;;;5017496;28;20369;-82
2022/09/15 03:46:10;;;;;;;16.90;10.52;;;15.70;99.90;;;;;;5069270;28;20024;-82
2022/09/15 03:48:39;;;;;;;20.48;10.95;;;15.70;99.90;;;;;;5070913;28;20012;-84
2022/09/15 03:51:06;;;;;;;21.08;10.98;;;15.70;99.90;;;;;;5072726;28;20077;-83
2022/09/15 03:53:33;;;;;;;21.25;10.82;;;15.70;99.90;;;;;;5068645;28;20081;-82
2022/09/15 03:56:17;;;;;;;20.10;11.00;;;15.70;99.90;;;;;;5068829;28;20082;-83
2022/09/15 03:58:43;;;;;;;15.93;10.68;;;15.80;99.90;;;;;;5071078;28;20032;-82
2022/09/15 04:01:08;;;;;;;18.83;10.38;;;15.80;99.90;;;;;;5069105;28;20039;-85
2022/09/15 04:03:34;;;;;;;14.77;10.00;;;15.80;99.90;;;;;;5077372;28;20029;-84
2022/09/15 04:05:59;;;;;;;16.15;9.77;;;15.80;99.90;;;;;;5070101;28;20598;-84
2022/09/15 04:08:25;;;;;;;20.25;10.70;;;15.80;99.90;;;;;;5069036;28;20032;-86
2022/09/15 04:10:50;;;;;;;21.35;10.77;;;15.80;99.90;;;;;;5068877;28;20040;-82
2022/09/15 04:13:16;;;;;;;20.23;10.75;;;15.80;99.90;;;;;;5067546;28;20033;-83
2022/09/15 04:15:43;;;;;;;17.65;11.00;;;15.80;99.90;;;;;;5069647;28;20024;-84
2022/09/15 04:18:09;;;;;;;16.95;9.75;;;15.80;99.90;;;;;;5067150;28;20023;-83
2022/09/15 04:20:37;;;;;;;25.65;12.98;;;15.80;99.90;;;;;;5076238;28;20020;-84
2022/09/15 04:23:03;;;;;;;21.35;10.20;;;15.70;99.90;;;;;;5067889;28;20055;-84
2022/09/15 04:25:28;;;;;;;19.90;10.77;;;15.70;99.90;;;;;;5068282;28;20468;-83
2022/09/15 04:27:56;;;;;;;15.77;10.35;;;15.70;99.90;;;;;;5073589;28;20086;-82
2022/09/15 04:30:21;;;;;;;20.98;11.40;;;15.60;99.90;;;;;;5069541;28;20029;-83
2022/09/15 04:32:48;;;;;;;18.17;11.75;;;15.60;99.90;;;;;;5067392;28;20041;-81
2022/09/15 04:35:14;;;;;;;18.80;11.02;;;15.60;99.90;;;;;;5069680;28;20036;-84
2022/09/15 04:37:40;;;;;;;19.10;11.57;;;15.50;99.90;;;;;;5071414;28;20033;-84
2022/09/15 04:40:07;;;;;;;20.58;11.88;;;15.50;99.90;;;;;;5074975;28;20358;-83
2022/09/15 04:42:33;;;;;;;16.77;10.82;;;15.50;99.90;;;;;;5074597;28;20524;-84
2022/09/15 04:44:58;;;;;;;20.17;11.25;;;15.40;99.90;;;;;;5076157;28;20027;-84
2022/09/15 04:47:24;;;;;;;17.13;10.27;;;15.40;99.90;;;;;;5065554;28;20032;-82
2022/09/15 04:49:49;;;;;;;17.55;10.65;;;15.40;99.90;;;;;;5068681;28;20033;-85
2022/09/15 04:52:15;;;;;;;21.10;11.90;;;15.40;99.90;;;;;;5066476;28;20039;-82
2022/09/15 04:54:41;;;;;;;15.68;10.82;;;15.40;99.90;;;;;;5069212;28;20041;-84
2022/09/15 04:57:06;;;;;;;15.70;9.68;;;15.30;99.90;;;;;;5084689;28;20483;-82
2022/09/15 04:59:32;;;;;;;15.40;10.13;;;15.30;99.90;;;;;;5067323;28;20024;-83
2022/09/15 05:01:57;;;;;;;17.55;10.70;;;15.30;99.90;;;;;;5070555;28;20056;-85
2022/09/15 05:04:23;;;;;;;17.25;10.80;;;15.30;99.90;;;;;;5069858;28;20138;-83
2022/09/15 05:06:48;;;;;;;15.93;10.57;;;15.20;99.90;;;;;;5068367;28;20025;-82
2022/09/15 05:09:14;;;;;;;16.33;11.23;;;15.20;99.90;;;;;;5069051;28;20020;-82
2022/09/15 05:11:39;;;;;;;17.90;10.90;;;15.20;99.90;;;;;;5070114;28;20047;-83
2022/09/15 05:14:05;;;;;;;22.83;11.82;;;15.20;99.90;;;;;;5070694;28;20044;-85
2022/09/15 05:16:31;;;;;;;17.80;11.98;;;15.20;99.90;;;;;;5068737;28;20074;-84
2022/09/15 05:18:59;;;;;;;17.83;11.25;;;15.20;99.90;;;;;;5070733;28;20043;-84
2022/09/15 05:21:24;;;;;;;20.77;11.43;;;15.30;99.90;;;;;;5069256;28;20025;-84
2022/09/15 05:23:51;;;;;;;21.42;12.77;;;15.30;99.90;;;;;;5069557;28;20028;-84
2022/09/15 05:26:25;;;;;;;22.95;11.10;;;15.30;99.90;;;;;;5071400;28;20027;-83
2022/09/15 05:28:51;;;;;;;25.50;12.73;;;15.40;99.90;;;;;;5072480;28;20025;-83
2022/09/15 05:31:29;;;;;;;20.13;12.25;;;15.40;99.90;;;;;;5073147;28;20392;-82
2022/09/15 05:33:56;;;;;;;22.45;12.63;;;15.40;99.90;;;;;;5089046;28;20044;-83
2022/09/15 05:36:24;;;;;;;19.67;12.77;;;15.50;99.90;;;;;;5087655;28;20028;-81
2022/09/15 05:38:51;;;;;;;21.45;13.27;;;15.50;99.90;;;;;;5077987;28;20025;-81
2022/09/15 05:41:17;;;;;;;22.23;12.35;;;15.60;99.90;;;;;;5076531;28;20465;-82
2022/09/15 05:43:44;;;;;;;20.10;12.98;;;15.60;99.90;;;;;;5074406;28;20119;-83
2022/09/15 05:46:11;;;;;;;20.08;13.23;;;15.60;99.90;;;;;;5074165;28;20083;-84
2022/09/15 05:48:36;;;;;;;24.02;14.13;;;15.60;99.90;;;;;;5074062;28;20052;-84
2022/09/15 05:51:03;;;;;;;21.60;13.13;;;15.60;99.90;;;;;;5074096;28;20154;-83
2022/09/15 05:53:29;;;;;;;28.77;13.63;;;15.70;99.90;;;;;;5073704;28;20020;-83
2022/09/15 05:55:57;;;;;;;29.13;12.88;;;15.70;99.90;;;;;;5072840;28;20412;-85
2022/09/15 05:58:23;;;;;;;21.95;13.20;;;15.70;99.90;;;;;;5073702;28;20024;-83
2022/09/15 06:00:49;;;;;;;22.05;13.05;;;15.70;99.90;;;;;;5072880;28;20021;-84
2022/09/15 06:03:15;;;;;;;23.40;12.90;;;15.70;99.90;;;;;;5073770;28;20050;-84
2022/09/15 06:05:41;;;;;;;22.15;13.93;;;15.70;99.90;;;;;;5071631;28;20663;-81
2022/09/15 06:08:07;;;;;;;22.42;13.63;;;15.80;99.90;;;;;;5072138;28;20039;-83
2022/09/15 06:10:32;;;;;;;20.88;13.10;;;15.80;99.90;;;;;;5071718;28;20021;-83
2022/09/15 06:12:58;;;;;;;25.20;13.77;;;15.90;99.90;;;;;;5071828;28;20029;-84
2022/09/15 06:15:24;;;;;;;20.27;13.13;;;15.90;99.90;;;;;;5072818;28;20029;-83
2022/09/15 06:17:50;;;;;;;26.13;13.50;;;16.00;99.90;;;;;;5072845;28;20465;-82
2022/09/15 06:20:17;;;;;;;20.42;12.80;;;16.00;99.90;;;;;;5072934;28;20027;-83
2022/09/15 06:22:43;;;;;;;18.20;11.77;;;16.00;99.90;;;;;;5071336;28;20805;-82
2022/09/15 06:25:10;;;;;;;23.17;11.40;;;16.10;99.90;;;;;;5071836;28;20474;-83
2022/09/15 06:27:36;;;;;;;20.70;12.63;;;16.10;99.90;;;;;;5072600;28;20020;-82
2022/09/15 06:30:02;;;;;;;16.55;12.20;;;16.20;99.90;;;;;;5072885;28;20417;-82
2022/09/15 06:32:27;;;;;;;21.00;12.20;;;16.20;99.90;;;;;;5071245;28;20058;-82
2022/09/15 06:34:53;;;;;;;17.45;11.50;;;16.20;99.90;;;;;;5071838;28;20024;-83
2022/09/15 06:37:18;;;;;;;22.02;11.98;;;16.20;99.90;;;;;;5071827;28;20036;-85
2022/09/15 06:39:44;;;;;;;20.52;11.88;;;16.30;99.90;;;;;;5073234;28;20065;-83
2022/09/15 06:42:10;;;;;;;19.75;11.20;;;16.30;99.90;;;;;;5071124;28;20460;-83
2022/09/15 06:44:35;;;;;;;21.13;11.73;;;16.30;99.90;;;;;;5070760;28;20025;-83
2022/09/15 06:47:02;;;;;;;18.45;11.43;;;16.30;99.90;;;;;;5072406;28;20518;-83
2022/09/15 06:49:27;;;;;;;19.27;10.93;;;16.30;99.90;;;;;;5072552;28;20027;-84
2022/09/15 06:51:53;;;;;;;19.23;11.18;;;16.20;99.90;;;;;;5072089;28;20052;-82
2022/09/15 06:54:19;;;;;;;17.67;10.68;;;16.20;99.90;;;;;;5072265;28;20020;-83
2022/09/15 06:56:44;;;;;;;17.83;9.57;;;16.20;99.90;;;;;;5072178;28;20016;-82
2022/09/15 06:59:11;;;;;;;15.32;9.63;;;16.30;99.90;;;;;;5071551;28;20020;-81
2022/09/15 07:01:37;;;;;;;14.40;10.20;;;16.30;99.90;;;;;;5070473;28;20055;-83
2022/09/15 07:04:05;;;;;;;17.17;10.10;;;16.30;99.90;;;;;;5070766;28;20377;-82
2022/09/15 07:06:32;;;;;;;14.68;10.13;;;16.40;99.90;;;;;;5071361;28;20021;-85
2022/09/15 07:09:00;;;;;;;17.00;9.55;;;16.40;99.90;;;;;;5070784;28;20036;-83
2022/09/15 07:11:26;;;;;;;21.52;9.57;;;16.50;99.90;;;;;;5070116;28;20449;-83
2022/09/15 07:13:51;;;;;;;15.45;10.20;;;16.50;99.90;;;;;;5070570;28;20074;-82
2022/09/15 07:16:18;;;;;;;14.18;9.52;;;16.50;99.90;;;;;;5071569;28;20028;-82
2022/09/15 07:18:47;;;;;;;13.45;9.30;;;16.50;99.90;;;;;;5070818;28;20029;-84
2022/09/15 07:21:19;;;;;;;14.20;9.20;;;16.60;99.90;;;;;;5071680;28;20377;-83
2022/09/15 07:23:45;;;;;;;15.68;9.85;;;16.60;99.90;;;;;;5072225;28;20025;-84
2022/09/15 07:26:16;;;;;;;17.23;10.10;;;16.60;99.90;;;;;;5071499;28;20017;-83
2022/09/15 07:28:44;;;;;;;19.13;10.27;;;16.50;99.90;;;;;;5071948;28;20616;-83
2022/09/15 07:31:14;;;;;;;18.40;10.18;;;16.50;99.90;;;;;;5069769;28;20032;-84
2022/09/15 07:33:39;;;;;;;16.02;11.25;;;16.50;99.90;;;;;;5070364;28;20671;-81
2022/09/15 07:36:06;;;;;;;15.32;10.57;;;16.60;99.90;;;;;;5070881;28;20034;-83
2022/09/15 07:38:33;;;;;;;18.88;11.57;;;16.50;99.90;;;;;;5071378;28;20521;-81
2022/09/15 07:41:04;;;;;;;16.92;11.82;;;16.50;99.90;;;;;;5069917;28;20036;-83
2022/09/15 07:43:29;;;;;;;21.92;13.15;;;16.50;99.90;;;;;;5071763;28;20016;-82
2022/09/15 07:45:59;;;;;;;18.75;13.27;;;16.50;99.90;;;;;;5071060;28;20016;-82
2022/09/15 07:48:24;;;;;;;24.23;13.27;;;16.40;99.90;;;;;;5071256;28;20021;-83
2022/09/15 07:50:50;;;;;;;23.90;15.15;;;16.50;99.90;;;;;;5071117;28;20035;-83
2022/09/15 07:53:16;;;;;;;19.88;13.40;;;16.50;99.90;;;;;;5069946;28;20023;-84
2022/09/15 07:55:41;;;;;;;21.33;14.35;;;16.50;99.90;;;;;;5070497;28;20032;-81
2022/09/15 07:58:07;;;;;;;25.75;13.75;;;16.50;99.90;;;;;;5071558;28;20035;-83
2022/09/15 08:00:32;;;;;;;20.55;12.98;;;16.50;99.90;;;;;;5071344;28;20138;-82
2022/09/15 08:02:58;;;;;;;22.52;13.02;;;16.60;99.90;;;;;;5070763;28;20111;-83
2022/09/15 08:05:26;;;;;;;17.23;12.05;;;16.70;99.90;;;;;;5071092;28;20100;-81
2022/09/15 08:07:56;;;;;;;20.02;12.05;;;16.70;99.90;;;;;;5069020;28;20028;-85
2022/09/15 08:10:24;;;;;;;24.48;12.23;;;16.80;99.90;;;;;;5071273;28;20085;-83
2022/09/15 08:12:50;;;;;;;21.10;12.32;;;16.80;99.90;;;;;;5071476;28;20025;-82
2022/09/15 08:15:15;;;;;;;19.02;12.70;;;16.80;99.90;;;;;;5069706;28;20111;-82
2022/09/15 08:17:41;;;;;;;17.48;12.27;;;16.90;99.90;;;;;;5070647;28;20103;-84
2022/09/15 08:20:06;;;;;;;18.20;10.55;;;17.00;99.90;;;;;;5070843;28;20036;-82
2022/09/15 08:22:32;;;;;;;16.25;11.38;;;17.00;99.90;;;;;;5069564;28;20066;-84
2022/09/15 08:24:58;;;;;;;16.95;11.35;;;17.10;99.90;;;;;;5069834;28;20021;-85
2022/09/15 08:27:24;;;;;;;18.50;12.52;;;17.10;99.90;;;;;;5070285;28;20028;-82
2022/09/15 08:29:49;;;;;;;17.05;12.35;;;17.10;99.90;;;;;;5070937;28;20033;-82
2022/09/15 08:32:15;;;;;;;15.80;10.63;;;17.10;99.90;;;;;;5069228;28;20021;-83
2022/09/15 08:34:40;;;;;;;19.67;10.32;;;17.20;99.90;;;;;;5069751;28;20107;-82
2022/09/15 08:37:06;;;;;;;14.48;10.05;;;17.20;99.90;;;;;;5069240;28;20390;-81
2022/09/15 08:39:31;;;;;;;18.52;11.00;;;17.30;99.90;;;;;;5071006;28;20027;-81
2022/09/15 08:41:59;;;;;;;12.38;9.65;;;17.30;99.90;;;;;;5070453;28;20111;-85
2022/09/15 08:44:44;;;;;;;17.63;9.00;;;17.30;99.90;;;;;;5070867;28;20024;-82
2022/09/15 08:47:30;;;;;;;11.27;8.90;;;17.40;99.90;;;;;;5070733;28;20626;-83
2022/09/15 08:50:16;;;;;;;15.32;9.82;;;17.50;99.90;;;;;;5071911;28;20027;-80
2022/09/15 08:52:49;;;;;;;14.32;9.20;;;17.50;99.90;;;;;;5072922;28;20025;-81
2022/09/15 08:55:18;;;;;;;;;;;17.60;99.90;;;;;;5105076;28;20017;-81
2022/09/15 08:57:44;;;;;;;12.65;8.77;;;17.60;99.90;;;;;;5093906;28;19908;-82
2022/09/15 09:00:15;;;;;;;14.70;9.02;;;17.60;99.90;;;;;;5080834;28;20040;-82
2022/09/15 09:02:56;;;;;;;12.18;8.45;;;17.60;99.90;;;;;;5075697;28;20036;-81
2022/09/15 09:05:48;;;;;;;14.57;9.75;;;17.60;99.90;;;;;;5088364;28;20029;-84
2022/09/15 09:08:43;;;;;;;16.02;10.38;;;17.50;99.90;;;;;;5074564;28;20020;-82
2022/09/15 09:11:33;;;;;;;14.30;9.70;;;17.60;99.90;;;;;;5073162;28;20346;-84
2022/09/15 09:14:06;;;;;;;15.07;10.57;;;17.60;99.90;;;;;;5073025;28;20169;-81
2022/09/15 09:16:42;;;;;;;;;;;17.70;99.90;;;;;;5072643;28;20032;-82
2022/09/15 09:19:36;;;;;;;11.20;9.55;;;17.70;99.90;;;;;;5073468;28;20295;-83
2022/09/15 09:22:16;;;;;;;14.55;10.13;;;17.80;99.90;;;;;;5072839;28;20032;-81
2022/09/15 09:24:45;;;;;;;13.93;10.15;;;17.90;99.90;;;;;;5074438;28;20028;-81
2022/09/15 09:27:17;;;;;;;12.82;10.40;;;18.00;99.90;;;;;;5073958;28;20050;-83
2022/09/15 09:30:01;;;;;;;14.15;10.05;;;18.10;99.90;;;;;;5072415;28;20028;-83
2022/09/15 09:32:34;;;;;;;14.63;9.48;;;18.20;99.90;;;;;;5073558;28;20029;-82
2022/09/15 09:35:22;;;;;;;12.40;9.13;;;18.20;99.90;;;;;;5072344;28;20028;-82
2022/09/15 09:37:51;;;;;;;12.98;9.13;;;18.40;99.90;;;;;;5073086;28;20033;-85
2022/09/15 09:40:17;;;;;;;12.55;9.32;;;18.40;99.90;;;;;;5072612;28;20365;-81
2022/09/15 09:42:43;;;;;;;12.63;9.65;;;18.50;99.90;;;;;;5073602;28;20465;-81
2022/09/15 09:45:14;;;;;;;11.05;8.90;;;18.60;99.90;;;;;;5073565;28;20060;-81
2022/09/15 09:47:40;;;;;;;12.27;7.82;;;18.60;99.90;;;;;;5072813;28;20079;-83
2022/09/15 09:50:38;;;;;;;12.35;6.93;;;18.70;99.90;;;;;;5073657;28;20365;-83
2022/09/15 09:53:32;;;;;;;8.60;6.55;;;18.80;99.90;;;;;;5072858;28;20078;-83
2022/09/15 09:56:21;;;;;;;11.52;5.68;;;18.80;99.90;;;;;;5071833;28;20033;-83
2022/09/15 09:58:47;;;;;;;6.40;5.28;;;18.80;99.50;;;;;;5072522;28;20469;-83
2022/09/15 10:01:16;;;;;;;9.15;5.18;;;18.90;99.60;;;;;;5073526;28;20060;-86
2022/09/15 10:03:42;;;;;;;9.10;5.57;;;19.00;98.90;;;;;;5072146;28;20028;-85
2022/09/15 10:06:21;;;;;;;7.93;5.18;;;19.00;99.30;;;;;;5072866;28;20017;-83
2022/09/15 10:08:58;;;;;;;7.57;5.22;;;19.20;99.10;;;;;;5073420;28;20037;-84
2022/09/15 10:11:50;;;;;;;8.63;4.18;;;19.30;98.80;;;;;;5071682;28;20063;-84
2022/09/15 10:14:28;;;;;;;5.30;3.90;;;19.50;98.70;;;;;;5072114;28;20021;-83
2022/09/15 10:17:16;;;;;;;5.97;3.08;;;19.50;97.60;;;;;;5072982;28;20013;-82
2022/09/15 10:19:47;;;;;;;5.45;3.42;;;19.60;97.50;;;;;;5072905;28;20028;-86
2022/09/15 10:22:37;;;;;;;6.47;4.40;;;19.60;98.00;;;;;;5071620;28;20068;-83
2022/09/15 10:25:20;;;;;;;4.53;3.25;;;19.70;97.50;;;;;;5059850;28;20036;-86
2022/09/15 10:28:01;;;;;;;3.60;2.88;;;19.90;96.90;;;;;;5072721;28;20016;-84
2022/09/15 10:30:27;;;;;;;3.83;2.75;;;19.90;97.20;;;;;;5071404;28;20191;-84
2022/09/15 10:32:52;;;;;;;6.15;2.42;;;19.90;97.30;;;;;;5072806;28;20036;-83
2022/09/15 10:35:19;;;;;;;5.43;2.08;;;20.00;96.60;;;;;;5073292;28;20143;-84
2022/09/15 10:38:52;;;;;;;4.65;2.88;;;20.20;96.70;;;;;;5071538;28;20024;-84
2022/09/15 10:41:33;;;;;;;4.93;2.40;;;20.30;95.30;;;;;;5027048;28;20470;-82
2022/09/15 10:44:29;;;;;;;6.40;3.28;;;20.20;95.80;;;;;;5033643;28;20033;-83
2022/09/15 10:47:36;;;;;;;7.95;3.63;;;20.00;96.00;;;;;;5074076;28;20115;-83
2022/09/15 10:50:11;;;;;;;5.00;3.42;;;19.80;96.00;;;;;;5010657;28;20054;-85
2022/09/15 10:52:52;;;;;;;4.53;3.00;;;19.70;96.50;;;;;;5010533;28;20045;-85
2022/09/15 10:55:20;;;;;;;6.15;2.83;;;19.50;96.90;;;;;;5029510;28;20037;-83
2022/09/15 10:57:55;;;;;;;3.90;2.38;;;19.30;97.20;;;;;;5051213;28;20116;-84
2022/09/15 11:00:22;;;;;;;6.30;2.67;;;19.20;97.60;;;;;;5052514;28;20060;-87
2022/09/15 11:03:15;;;;;;;4.13;2.42;;;19.10;98.10;;;;;;5070491;28;20028;-84
2022/09/15 11:06:16;;;;;;;4.83;2.33;;;18.90;97.50;;;;;;5070106;28;20449;-84
2022/09/15 11:08:54;;;;;;;2.40;2.13;;;18.70;98.50;;;;;;5070433;28;20743;-83
2022/09/15 11:11:47;;;;;;;3.03;2.25;;;18.50;98.30;;;;;;5071989;28;20036;-84
2022/09/15 11:14:27;;;;;;;3.47;2.15;;;18.30;98.00;;;;;;5071157;28;20025;-83
2022/09/15 11:17:30;;;;;;;9.50;2.53;;;18.20;98.40;;;;;;5070288;28;20028;-81
2022/09/15 11:20:30;;;;;;;6.65;2.42;;;18.20;98.60;;;;;;5072105;28;20093;-83
2022/09/15 11:23:08;;;;;;;6.07;2.08;;;18.10;98.70;;;;;;5037394;28;20028;-86
2022/09/15 11:25:45;;;;;;;3.58;1.45;;;18.10;98.70;;;;;;5071398;28;20062;-85
2022/09/15 11:28:37;;;;;;;2.70;1.05;;;18.00;98.50;;;;;;5072493;28;20480;-83
2022/09/15 11:31:26;;;;;;;2.38;1.10;;;17.90;98.60;;;;;;5071760;28;20122;-83
2022/09/15 11:33:57;;;;;;;2.33;1.05;;;17.90;98.70;;;;;;5070942;28;20067;-84
2022/09/15 11:36:28;;;;;;;8.18;1.00;;;17.90;99.00;;;;;;5071302;28;20086;-83
2022/09/15 11:39:00;;;;;;;1.60;0.98;;;17.90;98.90;;;;;;5071893;28;20427;-84
2022/09/15 11:41:39;;;;;;;1.83;0.90;;;17.90;99.20;;;;;;5071263;28;20044;-83
2022/09/15 11:44:24;;;;;;;3.78;1.20;;;18.00;99.30;;;;;;5070555;28;20032;-85
2022/09/15 11:47:04;;;;;;;4.10;0.85;;;18.10;98.60;;;;;;5064366;28;20025;-84
2022/09/15 11:49:44;;;;;;;4.07;0.95;;;18.00;98.40;;;;;;5067918;28;20031;-83
2022/09/15 11:52:38;;;;;;;3.25;0.88;;;18.10;98.50;;;;;;5058166;28;20032;-82
2022/09/15 11:55:25;;;;;;;1.85;0.70;;;18.20;98.20;;;;;;5080797;28;20024;-87
2022/09/15 11:58:18;;;;;;;3.53;0.82;;;18.20;97.60;;;;;;5060629;28;20020;-83
2022/09/15 12:01:08;;;;;;;5.10;2.38;;;18.30;97.80;;;;;;5069348;28;20025;-84
2022/09/15 12:03:54;;;;;;;6.07;0.88;;;18.50;97.20;;;;;;5058795;28;20047;-83
2022/09/15 12:06:42;;;;;;;4.68;0.80;;;18.80;97.00;;;;;;5069583;28;20069;-87
2022/09/15 12:09:14;;;;;;;6.38;0.95;;;18.80;97.00;;;;;;5068486;28;20119;-86
2022/09/15 12:11:46;;;;;;;1.83;0.60;;;19.00;96.30;;;;;;5071528;28;20032;-87
2022/09/15 12:14:26;;;;;;;3.05;0.65;;;19.00;95.20;;;;;;5074864;28;20032;-81
2022/09/15 12:16:52;;;;;;;3.05;0.82;;;19.00;95.00;;;;;;5095300;28;20051;-86
2022/09/15 12:19:39;;;;;;;3.33;0.75;;;18.90;95.30;;;;;;5073622;28;20029;-83
2022/09/15 12:22:18;;;;;;;3.40;0.60;;;18.80;95.30;;;;;;5074322;28;20376;-83
2022/09/15 12:25:09;;;;;;;2.65;0.73;;;18.70;95.20;;;;;;5073857;28;20035;-84
2022/09/15 12:27:34;;;;;;;1.83;0.68;;;18.80;95.30;;;;;;5070089;28;20075;-83
2022/09/15 12:30:00;;;;;;;1.67;0.60;;;18.80;94.80;;;;;;5069443;28;20457;-82
2022/09/15 12:32:27;;;;;;;1.67;0.50;;;18.90;94.90;;;;;;5070688;28;20020;-83
2022/09/15 12:35:22;;;;;;;1.88;0.38;;;18.90;94.50;;;;;;5068295;28;20021;-83
2022/09/15 12:37:58;;;;;;;1.80;0.50;;;19.00;94.00;;;;;;5039195;28;20483;-82
2022/09/15 12:40:37;;;;;;;3.60;0.93;;;19.00;94.30;;;;;;5070607;28;20020;-83
2022/09/15 12:43:12;;;;;;;2.35;0.63;;;19.00;94.80;;;;;;5070175;28;20052;-86
2022/09/15 12:45:40;;;;;;;2.97;1.08;;;19.20;94.80;;;;;;5068743;28;20031;-83
2022/09/15 12:48:21;;;;;;;4.50;0.60;;;19.30;95.50;;;;;;5069215;28;20400;-85
2022/09/15 12:50:57;;;;;;;1.60;0.60;;;19.40;94.60;;;;;;5069064;28;20017;-83
2022/09/15 12:53:36;;;;;;;0.90;0.50;;;19.50;94.50;;;;;;5070634;28;20039;-84
2022/09/15 12:56:06;;;;;;;4.03;0.60;;;19.60;94.50;;;;;;5068874;28;20477;-86
2022/09/15 12:58:46;;;;;;;1.08;0.60;;;19.70;95.00;;;;;;5068654;28;20029;-83